Terminal Aerodrome Forecast
Issued by NWS

Home | Current Version | Previous Version | Text Only | Print | Product List | Glossary On
Versions: 1 2 3 4 5 6 7 8 9 10 11 12 13 14 15 16 17 18 19 20
000
FTUS45 KABQ 300534
TAFAEG
TAF
KAEG 300534Z 3006/0106 05005KT P6SM VCSH SCT020 OVC045
     FM300800 VRB03KT 2SM BR FEW005 BKN009
     FM301400 31010KT P6SM FEW030
     FM301900 30018G28KT P6SM SKC
     FM010100 30010KT P6SM SKC
      AMD NOT SKED=

USA.gov is the U.S. government's official web portal to all federal, state and local government web resources and services.